createdAt,value
2018-12-15T00:00:31.736Z,25.90
2018-12-15T00:03:05.443Z,26.17
2018-12-15T00:05:43.919Z,24.10
2018-12-15T00:08:15.779Z,22.87
2018-12-15T00:10:54.354Z,22.60
2018-12-15T00:13:31.215Z,22.57
2018-12-15T00:16:08.010Z,22.37
2018-12-15T00:18:43.331Z,22.67
2018-12-15T00:21:14.515Z,21.63
2018-12-15T00:24:02.387Z,21.73
2018-12-15T00:26:43.716Z,23.17
2018-12-15T00:29:28.731Z,22.83
2018-12-15T00:32:08.120Z,22.90
2018-12-15T00:34:42.444Z,20.83
2018-12-15T00:37:16.746Z,22.50
2018-12-15T00:39:49.457Z,21.90
2018-12-15T00:42:35.210Z,22.50
2018-12-15T00:45:05.367Z,21.90
2018-12-15T00:47:36.455Z,22.53
2018-12-15T00:50:07.875Z,21.90
2018-12-15T00:52:52.999Z,21.07
2018-12-15T00:55:24.502Z,20.30
2018-12-15T00:57:57.420Z,22.30
2018-12-15T01:00:29.325Z,23.13
2018-12-15T01:05:49.603Z,22.10
2018-12-15T01:08:19.867Z,22.97
2018-12-15T01:10:51.502Z,23.37
2018-12-15T01:13:27.662Z,23.63
2018-12-15T01:15:57.556Z,25.07
2018-12-15T01:18:42.271Z,23.87
2018-12-15T01:21:13.355Z,23.93
2018-12-15T01:23:50.483Z,24.20
2018-12-15T01:26:23.771Z,23.67
2018-12-15T01:28:57.212Z,24.60
2018-12-15T01:31:29.632Z,24.33
2018-12-15T01:34:18.978Z,22.77
2018-12-15T01:36:52.778Z,23.37
2018-12-15T01:39:23.347Z,24.40
2018-12-15T01:42:07.228Z,24.60
2018-12-15T01:44:39.689Z,24.17
2018-12-15T01:47:11.865Z,23.20
2018-12-15T01:49:55.224Z,23.70
2018-12-15T01:52:29.429Z,22.97
2018-12-15T01:55:00.026Z,23.27
2018-12-15T01:57:33.924Z,23.60
2018-12-15T02:00:09.005Z,22.27
2018-12-15T02:02:48.560Z,24.67
2018-12-15T02:05:19.950Z,24.20
2018-12-15T02:07:52.691Z,22.83
2018-12-15T02:10:23.974Z,23.23
2018-12-15T02:13:00.565Z,24.47
2018-12-15T02:15:31.812Z,22.67
2018-12-15T02:18:02.637Z,25.60
2018-12-15T02:20:33.441Z,24.53
2018-12-15T02:23:06.834Z,25.50
2018-12-15T02:25:40.761Z,25.30
2018-12-15T02:28:10.704Z,25.90
2018-12-15T02:30:49.022Z,25.70
2018-12-15T02:33:47.820Z,25.33
2018-12-15T02:36:23.780Z,25.83
2018-12-15T02:38:56.249Z,26.20
2018-12-15T02:41:30.887Z,25.67
2018-12-15T02:44:09.879Z,30.77
2018-12-15T02:46:45.747Z,28.63
2018-12-15T02:49:17.131Z,29.03
2018-12-15T02:51:50.193Z,28.03
2018-12-15T02:54:30.457Z,27.07
2018-12-15T02:57:03.942Z,33.80
2018-12-15T02:59:39.524Z,29.80
2018-12-15T03:02:26.851Z,29.10
2018-12-15T03:04:57.828Z,28.80
2018-12-15T03:07:28.447Z,29.17
2018-12-15T03:09:58.671Z,27.83
2018-12-15T03:12:40.039Z,30.70
2018-12-15T03:15:19.162Z,35.90
2018-12-15T03:17:50.736Z,29.90
2018-12-15T03:20:20.543Z,31.43
2018-12-15T03:23:06.698Z,30.47
2018-12-15T03:25:43.312Z,30.27
2018-12-15T03:28:18.921Z,34.90
2018-12-15T03:31:07.433Z,31.43
2018-12-15T03:33:43.171Z,30.93
2018-12-15T03:36:25.999Z,30.00
2018-12-15T03:39:12.564Z,31.33
2018-12-15T03:41:57.957Z,29.20
2018-12-15T03:44:36.105Z,29.50
2018-12-15T03:50:30.648Z,28.73
2018-12-15T03:53:19.703Z,30.90
2018-12-15T03:56:05.348Z,33.87
2018-12-15T03:58:54.813Z,29.07
2018-12-15T04:01:39.274Z,28.37
2018-12-15T04:07:24.931Z,30.00
2018-12-15T04:09:59.245Z,32.20
2018-12-15T04:12:34.023Z,29.83
2018-12-15T04:15:04.234Z,31.17
2018-12-15T04:17:35.668Z,30.60
2018-12-15T04:20:09.390Z,28.63
2018-12-15T04:22:42.750Z,30.73
2018-12-15T04:25:12.628Z,28.70
2018-12-15T04:27:43.833Z,30.33
2018-12-15T04:30:16.061Z,29.80
2018-12-15T04:33:02.731Z,29.77
2018-12-15T04:35:32.572Z,28.50
2018-12-15T04:38:03.651Z,29.20
2018-12-15T04:40:34.720Z,27.47
2018-12-15T04:43:08.264Z,29.87
2018-12-15T04:45:40.921Z,28.30
2018-12-15T04:48:11.576Z,29.40
2018-12-15T04:50:41.741Z,28.57
2018-12-15T04:53:15.494Z,29.67
2018-12-15T04:55:45.161Z,29.57
2018-12-15T04:58:15.054Z,29.03
2018-12-15T05:00:44.948Z,29.27
2018-12-15T05:03:26.779Z,29.93
2018-12-15T05:06:20.486Z,28.70
2018-12-15T05:12:36.012Z,27.10
2018-12-15T05:15:21.057Z,26.17
2018-12-15T05:18:04.938Z,28.10
2018-12-15T05:20:36.522Z,29.17
2018-12-15T05:23:11.682Z,27.30
2018-12-15T05:25:58.802Z,28.10
2018-12-15T05:28:34.653Z,26.97
2018-12-15T05:31:16.526Z,26.70
2018-12-15T05:33:47.683Z,27.43
2018-12-15T05:36:18.163Z,27.03
2018-12-15T05:38:49.064Z,27.23
2018-12-15T05:41:18.775Z,25.20
2018-12-15T05:43:54.539Z,26.73
2018-12-15T05:46:24.649Z,26.30
2018-12-15T05:48:55.479Z,29.70
2018-12-15T05:51:26.125Z,23.67
2018-12-15T05:53:59.399Z,23.80
2018-12-15T05:56:29.739Z,25.50
2018-12-15T05:58:59.542Z,24.97
2018-12-15T06:01:29.457Z,24.93
2018-12-15T06:04:02.659Z,23.40
2018-12-15T06:06:32.545Z,23.40
2018-12-15T06:09:03.500Z,23.13
2018-12-15T06:11:33.524Z,22.30
2018-12-15T06:14:07.706Z,24.13
2018-12-15T06:16:37.750Z,22.20
2018-12-15T06:19:07.968Z,20.60
2018-12-15T06:21:39.062Z,20.83
2018-12-15T06:24:09.860Z,21.00
2018-12-15T06:26:44.103Z,21.33
2018-12-15T06:29:19.104Z,20.40
2018-12-15T06:31:50.023Z,20.67
2018-12-15T06:34:20.825Z,20.20
2018-12-15T06:36:51.110Z,20.17
2018-12-15T06:39:23.098Z,19.27
2018-12-15T06:41:56.051Z,20.03
2018-12-15T06:44:25.850Z,19.10
2018-12-15T06:46:56.523Z,20.27
2018-12-15T06:49:27.341Z,20.20
2018-12-15T06:51:59.784Z,21.80
2018-12-15T06:54:29.469Z,20.13
2018-12-15T06:57:00.119Z,18.50
2018-12-15T06:59:30.074Z,18.57
2018-12-15T07:02:05.395Z,20.23
2018-12-15T07:04:35.307Z,20.40
2018-12-15T07:07:10.877Z,19.67
2018-12-15T07:19:40.790Z,20.57
2018-12-15T07:55:01.391Z,19.00
2018-12-15T07:57:32.762Z,18.30
2018-12-15T08:00:02.810Z,18.77
2018-12-15T08:02:39.766Z,18.47
2018-12-15T08:05:09.971Z,17.97
2018-12-15T08:07:40.412Z,19.33
2018-12-15T08:10:10.274Z,29.27
2018-12-15T08:12:50.178Z,23.50
2018-12-15T08:15:20.191Z,17.60
2018-12-15T08:17:50.601Z,19.03
2018-12-15T08:20:20.414Z,19.27
2018-12-15T08:22:53.813Z,20.07
2018-12-15T08:25:24.189Z,19.20
2018-12-15T08:27:54.346Z,18.30
2018-12-15T08:30:24.475Z,20.00
2018-12-15T08:35:52.684Z,17.03
2018-12-15T08:38:24.113Z,17.60
2018-12-15T08:40:56.807Z,17.83
2018-12-15T08:43:34.016Z,21.00
2018-12-15T08:46:19.503Z,18.17
2018-12-15T08:48:50.339Z,18.97
2018-12-15T08:51:21.289Z,18.40
2018-12-15T08:53:52.463Z,20.47
2018-12-15T08:56:41.556Z,18.47
2018-12-15T08:59:12.527Z,17.67
2018-12-15T09:01:43.628Z,17.27
2018-12-15T09:11:01.723Z,18.10
2018-12-15T09:14:05.223Z,17.07
2018-12-15T09:16:44.808Z,16.90
2018-12-15T09:19:23.302Z,19.30
2018-12-15T09:22:11.112Z,17.30
2018-12-15T09:24:36.554Z,17.40
2018-12-15T09:27:10.470Z,18.23
2018-12-15T09:29:43.315Z,18.30
2018-12-15T09:32:22.356Z,18.90
2018-12-15T09:34:59.308Z,19.40
2018-12-15T09:37:29.104Z,18.00
2018-12-15T09:39:59.376Z,19.83
2018-12-15T09:42:37.495Z,19.40
2018-12-15T09:45:12.988Z,17.93
2018-12-15T09:47:52.726Z,17.13
2018-12-15T09:50:27.341Z,18.67
2018-12-15T09:53:06.625Z,18.33
2018-12-15T09:55:37.245Z,18.47
2018-12-15T09:58:11.466Z,18.90
2018-12-15T10:00:41.793Z,18.03
2018-12-15T10:03:18.053Z,19.13
2018-12-15T10:05:47.967Z,20.87
2018-12-15T10:08:18.008Z,18.50
2018-12-15T10:10:48.016Z,19.40
2018-12-15T10:13:32.779Z,18.40
2018-12-15T10:16:20.789Z,18.27
2018-12-15T10:18:54.475Z,18.67
2018-12-15T10:21:38.822Z,20.80
2018-12-15T10:24:08.612Z,19.13
2018-12-15T10:26:40.235Z,19.90
2018-12-15T10:29:15.175Z,19.63
2018-12-15T10:31:50.214Z,19.40
2018-12-15T10:34:19.858Z,19.07
2018-12-15T10:36:49.923Z,20.23
2018-12-15T10:39:19.867Z,20.43
2018-12-15T10:41:51.446Z,19.50
2018-12-15T10:44:35.172Z,20.33
2018-12-15T10:47:06.796Z,20.27
2018-12-15T10:49:40.285Z,21.43
2018-12-15T10:52:25.413Z,20.63
2018-12-15T10:54:57.602Z,19.33
2018-12-15T10:57:30.653Z,20.97
2018-12-15T11:00:00.930Z,21.03
2018-12-15T11:02:37.814Z,20.00
2018-12-15T11:05:08.501Z,20.70
2018-12-15T11:07:44.763Z,20.00
2018-12-15T11:10:16.105Z,27.07
2018-12-15T11:12:52.525Z,22.00
2018-12-15T11:15:24.840Z,21.47
2018-12-15T11:17:56.895Z,21.40
2018-12-15T11:20:29.573Z,20.23
2018-12-15T11:23:30.949Z,19.00
2018-12-15T11:26:06.300Z,20.33
2018-12-15T11:28:38.448Z,20.83
2018-12-15T11:31:13.870Z,19.43
2018-12-15T11:33:48.498Z,20.07
2018-12-15T11:36:19.497Z,19.70
2018-12-15T11:38:51.380Z,20.20
2018-12-15T11:41:21.072Z,20.20
2018-12-15T11:43:56.341Z,18.53
2018-12-15T11:46:26.985Z,18.97
2018-12-15T11:48:56.903Z,20.53
2018-12-15T11:51:27.332Z,21.60
2018-12-15T11:54:12.889Z,20.10
2018-12-15T11:56:44.506Z,20.13
2018-12-15T11:59:17.092Z,20.33
2018-12-15T12:01:53.132Z,21.20
2018-12-15T12:04:23.823Z,19.93
2018-12-15T12:06:53.642Z,20.67
2018-12-15T12:09:23.443Z,20.40
2018-12-15T12:11:57.126Z,21.73
2018-12-15T12:14:27.259Z,21.30
2018-12-15T12:16:56.852Z,19.70
2018-12-15T12:19:27.604Z,20.93
2018-12-15T12:22:03.280Z,23.40
2018-12-15T12:24:33.249Z,24.10
2018-12-15T12:27:10.783Z,22.87
2018-12-15T12:29:45.850Z,23.20
2018-12-15T12:32:35.839Z,19.57
2018-12-15T12:35:11.347Z,21.13
2018-12-15T12:37:41.348Z,19.70
2018-12-15T12:40:11.048Z,20.93
2018-12-15T12:42:44.398Z,20.53
2018-12-15T12:45:15.018Z,21.27
2018-12-15T12:47:45.547Z,22.00
2018-12-15T12:50:15.541Z,20.63
2018-12-15T12:52:48.766Z,20.20
2018-12-15T12:55:19.937Z,19.07
2018-12-15T12:57:50.516Z,19.73
2018-12-15T13:00:22.172Z,22.07
2018-12-15T13:02:55.080Z,19.97
2018-12-15T13:05:36.097Z,19.50
2018-12-15T13:08:07.229Z,18.77
2018-12-15T13:10:38.972Z,19.17
2018-12-15T13:13:24.028Z,18.83
2018-12-15T13:15:55.170Z,19.23
2018-12-15T13:18:26.866Z,20.23
2018-12-15T13:21:05.252Z,20.13
2018-12-15T13:23:39.182Z,20.67
2018-12-15T13:26:18.656Z,20.93
2018-12-15T13:28:53.379Z,20.10
2018-12-15T13:31:30.984Z,22.00
2018-12-15T13:34:13.036Z,23.17
2018-12-15T13:36:43.597Z,21.10
2018-12-15T13:39:14.001Z,20.43
2018-12-15T13:41:49.546Z,21.23
2018-12-15T13:44:48.336Z,23.97
2018-12-15T13:47:20.632Z,25.17
2018-12-15T13:49:51.745Z,22.83
2018-12-15T13:52:27.010Z,20.93
2018-12-15T13:55:03.541Z,22.53
2018-12-15T13:57:34.203Z,22.43
2018-12-15T14:00:06.614Z,26.80
2018-12-15T14:02:47.011Z,24.80
2018-12-15T14:05:19.214Z,23.00
2018-12-15T14:07:53.219Z,22.50
2018-12-15T14:13:10.158Z,23.70
2018-12-15T14:15:41.886Z,22.40
2018-12-15T14:18:17.230Z,23.00
2018-12-15T14:20:47.519Z,23.67
2018-12-15T14:23:32.439Z,23.90
2018-12-15T14:26:06.248Z,25.13
2018-12-15T14:28:36.005Z,23.37
2018-12-15T14:31:06.351Z,22.20
2018-12-15T14:33:43.012Z,22.90
2018-12-15T14:36:13.031Z,22.60
2018-12-15T14:38:42.843Z,22.40
2018-12-15T14:41:18.943Z,23.33
2018-12-15T14:44:00.038Z,25.73
2018-12-15T14:46:34.353Z,22.80
2018-12-15T14:52:22.410Z,23.57
2018-12-15T14:55:04.968Z,23.00
2018-12-15T14:57:43.680Z,23.73
2018-12-15T15:03:12.595Z,23.87
2018-12-15T15:08:33.174Z,23.40
2018-12-15T15:11:29.202Z,23.50
2018-12-15T15:14:20.204Z,23.50
2018-12-15T15:17:00.174Z,23.90
2018-12-15T15:19:34.801Z,23.53
2018-12-15T15:22:31.570Z,25.33
2018-12-15T15:25:22.454Z,24.03
2018-12-15T15:28:10.847Z,22.83
2018-12-15T15:30:59.684Z,23.30
2018-12-15T15:40:15.674Z,23.23
2018-12-15T15:43:02.770Z,23.20
2018-12-15T15:45:52.170Z,23.47
2018-12-15T16:03:02.664Z,21.50
2018-12-15T16:09:16.307Z,23.83
2018-12-15T16:11:50.413Z,22.03
2018-12-15T16:14:27.434Z,23.47
2018-12-15T16:17:00.636Z,22.87
2018-12-15T16:19:41.413Z,23.33
2018-12-15T16:22:20.141Z,23.93
2018-12-15T16:25:03.400Z,24.03
2018-12-15T16:27:40.848Z,23.57
2018-12-15T16:31:31.045Z,23.27
2018-12-15T16:34:50.903Z,22.00
2018-12-15T16:40:51.287Z,23.10
2018-12-15T16:43:31.569Z,22.03
2018-12-15T16:46:22.919Z,22.87
2018-12-15T16:49:09.660Z,22.40
2018-12-15T16:51:41.993Z,21.17
2018-12-15T16:54:14.603Z,23.03
2018-12-15T16:56:44.818Z,24.27
2018-12-15T17:15:42.655Z,22.83
2018-12-15T17:18:26.554Z,23.63
2018-12-15T17:20:59.928Z,23.17
2018-12-15T17:23:36.878Z,24.63
2018-12-15T17:26:13.661Z,23.33
2018-12-15T17:28:53.608Z,23.93
2018-12-15T17:31:27.424Z,20.97
2018-12-15T17:37:08.124Z,24.00
2018-12-15T17:39:40.018Z,23.03
2018-12-15T17:42:26.905Z,20.53
2018-12-15T17:51:03.284Z,22.30
2018-12-15T17:53:40.256Z,22.97
2018-12-15T17:56:14.579Z,24.20
2018-12-15T17:58:46.114Z,26.40
2018-12-15T18:01:16.383Z,26.80
2018-12-15T18:03:51.870Z,24.03
2018-12-15T18:06:21.580Z,24.90
2018-12-15T18:08:52.320Z,25.43
2018-12-15T18:11:42.729Z,25.00
2018-12-15T18:17:31.614Z,20.97
2018-12-15T18:20:09.897Z,24.17
2018-12-15T18:22:41.365Z,27.10
2018-12-15T18:25:15.886Z,24.77
2018-12-15T18:27:56.830Z,27.10
2018-12-15T18:30:34.374Z,31.67
2018-12-15T18:33:04.237Z,25.43
2018-12-15T18:35:34.259Z,26.70
2018-12-15T18:38:05.195Z,26.63
2018-12-15T18:40:38.176Z,24.13
2018-12-15T18:43:14.088Z,24.73
2018-12-15T18:46:07.831Z,25.27
2018-12-15T18:48:43.866Z,23.53
2018-12-15T18:51:19.089Z,24.30
2018-12-15T18:54:00.840Z,24.90
2018-12-15T18:56:36.303Z,23.03
2018-12-15T18:59:08.417Z,21.97
2018-12-15T19:01:38.723Z,23.73
2018-12-15T19:04:20.612Z,24.20
2018-12-15T19:06:59.191Z,22.00
2018-12-15T19:09:32.527Z,23.13
2018-12-15T19:12:16.255Z,23.10
2018-12-15T19:15:02.733Z,24.30
2018-12-15T19:17:36.027Z,23.80
2018-12-15T19:20:09.378Z,23.80
2018-12-15T19:22:55.579Z,24.63
2018-12-15T19:25:34.717Z,25.43
2018-12-15T19:28:19.375Z,26.03
2018-12-15T19:30:51.317Z,25.23
2018-12-15T19:33:36.634Z,25.17
2018-12-15T19:36:08.398Z,26.03
2018-12-15T19:38:41.875Z,26.23
2018-12-15T19:41:13.970Z,25.90
2018-12-15T19:43:44.841Z,25.70
2018-12-15T19:46:20.496Z,26.40
2018-12-15T19:48:50.493Z,26.03
2018-12-15T19:51:29.328Z,26.33
2018-12-15T19:54:01.869Z,27.67
2018-12-15T19:56:48.598Z,24.40
2018-12-15T19:59:27.895Z,24.80
2018-12-15T20:01:58.395Z,26.17
2018-12-15T20:04:42.466Z,24.80
2018-12-15T20:10:06.706Z,25.90
2018-12-15T20:12:48.973Z,27.27
2018-12-15T20:15:20.063Z,26.43
2018-12-15T20:18:19.616Z,25.60
2018-12-15T20:21:03.258Z,25.07
2018-12-15T20:23:39.680Z,24.73
2018-12-15T20:26:16.582Z,25.63
2018-12-15T20:28:51.799Z,25.60
2018-12-15T20:31:29.796Z,24.93
2018-12-15T20:34:14.445Z,24.50
2018-12-15T20:36:54.667Z,26.40
2018-12-15T20:39:40.023Z,25.20
2018-12-15T20:42:17.187Z,25.20
2018-12-15T20:44:50.092Z,25.53
2018-12-15T20:47:31.929Z,24.20
2018-12-15T20:50:19.588Z,25.60
2018-12-15T20:53:10.556Z,25.17
2018-12-15T20:55:58.358Z,24.83
2018-12-15T20:58:30.021Z,26.73
2018-12-15T21:01:07.111Z,25.90
2018-12-15T21:04:03.475Z,24.90
2018-12-15T21:07:05.818Z,24.50
2018-12-15T21:13:07.367Z,25.07
2018-12-15T21:16:30.337Z,24.97
2018-12-15T21:19:20.702Z,27.10
2018-12-15T21:22:21.421Z,24.80
2018-12-15T21:28:28.839Z,27.30
2018-12-15T21:31:14.634Z,27.23
2018-12-15T21:34:07.562Z,27.13
2018-12-15T21:37:00.550Z,27.50
2018-12-15T21:39:59.849Z,26.17
2018-12-15T21:42:52.497Z,24.40
2018-12-15T21:45:35.550Z,26.00
2018-12-15T21:48:18.579Z,24.73
2018-12-15T21:51:13.587Z,24.90
2018-12-15T21:54:08.334Z,25.53
2018-12-15T21:59:33.935Z,24.73
2018-12-15T22:02:15.182Z,25.93
2018-12-15T22:04:50.083Z,24.53
2018-12-15T22:07:48.202Z,24.70
2018-12-15T22:10:47.291Z,25.03
2018-12-15T22:13:56.088Z,26.03
2018-12-15T22:16:37.770Z,24.47
2018-12-15T22:19:12.190Z,25.17
2018-12-15T22:22:08.462Z,25.83
2018-12-15T22:24:58.624Z,26.07
2018-12-15T22:27:43.851Z,24.10
2018-12-15T22:30:31.103Z,25.33
2018-12-15T22:33:18.022Z,26.00
2018-12-15T22:35:49.781Z,25.47
2018-12-15T22:41:14.593Z,26.00
2018-12-15T22:44:00.776Z,25.67
2018-12-15T22:46:56.302Z,24.43
2018-12-15T22:49:31.601Z,25.93
2018-12-15T22:52:24.959Z,25.43
2018-12-15T22:55:01.893Z,24.27
2018-12-15T22:57:35.209Z,25.37
2018-12-15T23:00:15.199Z,26.23
2018-12-15T23:02:51.420Z,24.03
2018-12-15T23:05:21.161Z,25.30
2018-12-15T23:08:03.754Z,27.40
2018-12-15T23:10:37.672Z,27.37
2018-12-15T23:13:22.024Z,27.07
2018-12-15T23:16:01.476Z,28.83
2018-12-15T23:18:42.184Z,26.50
2018-12-15T23:21:15.134Z,27.50
2018-12-15T23:24:03.786Z,26.13
2018-12-15T23:26:37.687Z,27.50
2018-12-15T23:29:12.341Z,27.37
2018-12-15T23:31:52.553Z,27.10
2018-12-15T23:34:26.869Z,25.63
2018-12-15T23:37:16.730Z,26.13
2018-12-15T23:42:30.697Z,26.20
2018-12-15T23:47:57.591Z,27.90
2018-12-15T23:50:34.958Z,26.27
2018-12-15T23:53:16.861Z,28.33
2018-12-15T23:58:46.295Z,27.07
